createdAt,value
2023-06-19T00:01:10.276Z,11.43
2023-06-19T00:03:37.213Z,7.40
2023-06-19T00:06:04.294Z,5.68
2023-06-19T00:08:31.846Z,5.78
2023-06-19T00:10:58.872Z,4.85
2023-06-19T00:13:25.717Z,5.55
2023-06-19T00:15:52.815Z,5.05
2023-06-19T00:18:20.955Z,4.80
2023-06-19T00:20:48.370Z,4.70
2023-06-19T00:23:18.189Z,4.82
2023-06-19T00:25:45.808Z,5.50
2023-06-19T00:28:14.998Z,6.90
2023-06-19T00:30:42.672Z,5.95
2023-06-19T00:33:09.883Z,5.10
2023-06-19T00:35:36.798Z,4.32
2023-06-19T00:38:03.914Z,4.68
2023-06-19T00:40:34.955Z,6.40
2023-06-19T00:43:03.140Z,5.15
2023-06-19T00:45:32.722Z,5.38
2023-06-19T00:48:00.734Z,5.32
2023-06-19T00:50:30.231Z,4.65
2023-06-19T00:52:57.995Z,4.60
2023-06-19T00:55:29.343Z,5.60
2023-06-19T00:57:56.383Z,4.50
2023-06-19T01:00:23.794Z,4.57
2023-06-19T01:02:51.036Z,5.75
2023-06-19T01:05:19.047Z,5.63
2023-06-19T01:07:45.909Z,4.82
2023-06-19T01:10:17.768Z,4.95
2023-06-19T01:13:00.422Z,5.20
2023-06-19T01:15:28.241Z,5.40
2023-06-19T01:17:58.570Z,5.35
2023-06-19T01:20:26.647Z,5.30
2023-06-19T01:22:57.846Z,4.70
2023-06-19T01:25:25.666Z,4.82
2023-06-19T01:27:53.162Z,4.93
2023-06-19T01:30:20.796Z,5.07
2023-06-19T01:33:03.702Z,5.75
2023-06-19T01:38:02.947Z,5.15
2023-06-19T01:40:32.890Z,4.53
2023-06-19T01:43:02.268Z,4.80
2023-06-19T01:45:33.149Z,5.35
2023-06-19T01:48:00.145Z,5.35
2023-06-19T01:50:27.642Z,5.38
2023-06-19T01:52:54.539Z,4.70
2023-06-19T01:55:21.771Z,5.97
2023-06-19T01:57:49.000Z,5.13
2023-06-19T02:00:16.161Z,4.38
2023-06-19T02:02:43.232Z,4.70
2023-06-19T02:05:10.461Z,4.78
2023-06-19T02:07:37.529Z,5.53
2023-06-19T02:10:05.975Z,4.93
2023-06-19T02:12:32.940Z,5.00
2023-06-19T02:14:59.792Z,4.93
2023-06-19T02:17:26.721Z,5.80
2023-06-19T02:19:54.644Z,5.68
2023-06-19T02:22:21.550Z,5.25
2023-06-19T02:24:48.688Z,5.30
2023-06-19T02:27:17.044Z,4.78
2023-06-19T02:29:44.077Z,5.68
2023-06-19T02:32:11.089Z,5.10
2023-06-19T02:34:37.918Z,4.90
2023-06-19T02:37:05.024Z,5.63
2023-06-19T02:39:35.103Z,5.43
2023-06-19T02:42:02.393Z,5.25
2023-06-19T02:44:29.310Z,5.40
2023-06-19T02:46:56.243Z,4.53
2023-06-19T02:49:23.136Z,5.28
2023-06-19T02:51:50.085Z,5.05
2023-06-19T02:54:17.002Z,5.32
2023-06-19T02:56:43.929Z,5.28
2023-06-19T02:59:10.857Z,5.55
2023-06-19T03:01:37.767Z,4.80
2023-06-19T03:04:04.796Z,5.70
2023-06-19T03:06:31.948Z,4.82
2023-06-19T03:08:58.871Z,5.28
2023-06-19T03:11:25.735Z,4.97
2023-06-19T03:13:55.122Z,4.75
2023-06-19T03:16:22.517Z,4.80
2023-06-19T03:18:52.622Z,4.63
2023-06-19T03:21:21.139Z,4.63
2023-06-19T03:23:50.794Z,5.80
2023-06-19T03:26:19.558Z,5.00
2023-06-19T03:28:48.141Z,5.10
2023-06-19T03:31:16.292Z,4.82
2023-06-19T03:33:43.196Z,4.63
2023-06-19T03:36:10.181Z,4.25
2023-06-19T03:38:37.046Z,4.95
2023-06-19T03:41:04.027Z,5.20
2023-06-19T03:43:30.892Z,5.15
2023-06-19T03:45:57.797Z,4.50
2023-06-19T03:48:24.678Z,5.00
2023-06-19T03:50:51.724Z,4.32
2023-06-19T03:53:18.606Z,4.55
2023-06-19T03:55:45.647Z,4.93
2023-06-19T03:58:12.505Z,3.88
2023-06-19T04:00:39.427Z,3.78
2023-06-19T04:03:06.601Z,4.15
2023-06-19T04:05:33.543Z,3.80
2023-06-19T04:08:00.529Z,4.22
2023-06-19T04:10:27.588Z,4.50
2023-06-19T04:12:56.626Z,4.50
2023-06-19T04:15:23.874Z,4.05
2023-06-19T04:17:50.862Z,3.85
2023-06-19T04:20:17.804Z,4.95
2023-06-19T04:22:44.715Z,4.65
2023-06-19T04:25:12.388Z,4.55
2023-06-19T04:27:39.456Z,4.20
2023-06-19T04:30:09.973Z,4.07
2023-06-19T04:32:37.001Z,3.80
2023-06-19T04:35:04.411Z,3.75
2023-06-19T04:37:31.471Z,3.90
2023-06-19T04:39:58.707Z,3.75
2023-06-19T04:42:27.597Z,3.85
2023-06-19T04:44:54.724Z,3.35
2023-06-19T04:47:25.332Z,3.70
2023-06-19T04:49:53.842Z,3.72
2023-06-19T04:52:20.830Z,3.60
2023-06-19T04:54:49.502Z,3.88
2023-06-19T04:57:16.971Z,3.63
2023-06-19T04:59:45.314Z,3.38
2023-06-19T05:02:12.521Z,3.63
2023-06-19T05:04:39.607Z,4.05
2023-06-19T05:07:07.286Z,3.92
2023-06-19T05:09:34.097Z,3.97
2023-06-19T05:12:01.006Z,3.38
2023-06-19T05:14:27.850Z,3.45
2023-06-19T05:16:54.862Z,3.60
2023-06-19T05:19:21.824Z,3.58
2023-06-19T05:21:48.664Z,3.75
2023-06-19T05:24:15.646Z,3.08
2023-06-19T05:26:42.523Z,2.78
2023-06-19T05:29:09.876Z,3.42
2023-06-19T05:31:36.887Z,3.00
2023-06-19T05:34:04.534Z,2.90
2023-06-19T05:36:34.781Z,2.90
2023-06-19T05:39:01.588Z,2.65
2023-06-19T05:41:28.392Z,3.25
2023-06-19T05:43:55.237Z,2.33
2023-06-19T05:46:22.200Z,2.58
2023-06-19T05:48:49.204Z,3.47
2023-06-19T05:51:16.177Z,2.72
2023-06-19T05:53:43.040Z,2.80
2023-06-19T05:56:09.952Z,2.72
2023-06-19T05:58:36.816Z,2.70
2023-06-19T06:01:04.215Z,2.92
2023-06-19T06:03:32.056Z,3.30
2023-06-19T06:06:04.293Z,2.92
2023-06-19T06:08:31.832Z,2.95
2023-06-19T06:10:59.110Z,2.55
2023-06-19T06:13:25.978Z,2.45
2023-06-19T06:15:52.909Z,3.03
2023-06-19T06:18:20.363Z,3.10
2023-06-19T06:20:47.291Z,2.70
2023-06-19T06:23:14.359Z,2.63
2023-06-19T06:25:41.323Z,2.40
2023-06-19T06:28:08.281Z,2.72
2023-06-19T06:30:37.673Z,3.15
2023-06-19T06:33:04.828Z,3.30
2023-06-19T06:35:31.870Z,2.80
2023-06-19T06:37:58.737Z,3.47
2023-06-19T06:40:25.956Z,3.00
2023-06-19T06:42:54.432Z,2.97
2023-06-19T06:45:21.486Z,2.78
2023-06-19T06:47:48.720Z,2.72
2023-06-19T06:50:15.703Z,3.00
2023-06-19T06:52:42.609Z,2.58
2023-06-19T06:55:10.746Z,2.80
2023-06-19T06:57:37.647Z,3.10
2023-06-19T07:00:12.553Z,3.60
2023-06-19T07:02:41.364Z,3.60
2023-06-19T07:05:11.875Z,3.17
2023-06-19T07:07:38.943Z,2.47
2023-06-19T07:10:06.737Z,2.78
2023-06-19T07:12:34.051Z,2.90
2023-06-19T07:15:00.994Z,3.10
2023-06-19T07:17:27.884Z,3.00
2023-06-19T07:19:54.764Z,3.20
2023-06-19T07:22:21.796Z,2.95
2023-06-19T07:24:48.712Z,2.72
2023-06-19T07:27:15.717Z,3.33
2023-06-19T07:29:42.588Z,3.03
2023-06-19T07:32:09.487Z,3.20
2023-06-19T07:34:36.887Z,2.97
2023-06-19T07:37:05.636Z,4.03
2023-06-19T07:39:32.741Z,2.85
2023-06-19T07:41:59.652Z,2.97
2023-06-19T07:44:26.509Z,2.83
2023-06-19T07:46:53.459Z,2.92
2023-06-19T07:49:20.361Z,3.30
2023-06-19T07:51:47.265Z,3.65
2023-06-19T07:54:14.205Z,12.13
2023-06-19T07:56:43.653Z,3.53
2023-06-19T07:59:10.546Z,3.88
2023-06-19T08:01:37.473Z,3.42
2023-06-19T08:04:04.967Z,3.13
2023-06-19T08:06:32.000Z,3.45
2023-06-19T08:08:58.959Z,2.65
2023-06-19T08:11:25.885Z,3.30
2023-06-19T08:13:53.018Z,2.97
2023-06-19T08:16:20.055Z,3.38
2023-06-19T08:18:47.140Z,2.78
2023-06-19T08:21:14.795Z,3.00
2023-06-19T08:23:44.801Z,2.78
2023-06-19T08:26:12.196Z,2.50
2023-06-19T08:28:39.107Z,2.97
2023-06-19T08:31:06.061Z,3.15
2023-06-19T08:33:36.325Z,4.38
2023-06-19T08:36:03.453Z,3.83
2023-06-19T08:38:31.096Z,3.60
2023-06-19T08:40:58.022Z,3.08
2023-06-19T08:43:25.003Z,3.90
2023-06-19T08:46:12.405Z,2.88
2023-06-19T08:48:39.910Z,3.28
2023-06-19T08:51:07.394Z,3.20
2023-06-19T08:53:36.710Z,3.95
2023-06-19T08:56:04.351Z,4.88
2023-06-19T08:58:31.300Z,4.55
2023-06-19T09:01:01.380Z,5.03
2023-06-19T09:03:28.471Z,5.82
2023-06-19T09:05:55.493Z,5.03
2023-06-19T09:08:23.672Z,5.28
2023-06-19T09:11:12.118Z,4.95
2023-06-19T09:13:39.020Z,4.78
2023-06-19T09:16:08.335Z,4.50
2023-06-19T09:18:46.938Z,5.05
2023-06-19T09:21:19.485Z,4.20
2023-06-19T09:26:19.786Z,3.55
2023-06-19T09:28:47.682Z,4.15
2023-06-19T09:31:14.652Z,4.22
2023-06-19T09:33:42.156Z,4.43
2023-06-19T09:36:09.212Z,4.32
2023-06-19T09:38:41.367Z,4.65
2023-06-19T09:41:08.484Z,4.70
2023-06-19T09:43:43.270Z,5.32
2023-06-19T09:46:11.930Z,5.32
2023-06-19T09:48:47.257Z,4.35
2023-06-19T09:51:24.763Z,4.50
2023-06-19T09:53:52.079Z,3.92
2023-06-19T09:56:22.986Z,5.25
2023-06-19T09:58:52.268Z,4.45
2023-06-19T10:01:19.859Z,6.47
2023-06-19T10:03:47.220Z,6.13
2023-06-19T10:06:17.020Z,6.60
2023-06-19T10:08:45.367Z,7.53
2023-06-19T10:11:12.711Z,7.28
2023-06-19T10:13:42.646Z,7.95
2023-06-19T10:16:20.556Z,6.50
2023-06-19T10:18:48.775Z,5.50
2023-06-19T10:21:20.372Z,6.00
2023-06-19T10:24:02.683Z,5.97
2023-06-19T10:26:34.813Z,4.82
2023-06-19T10:29:02.471Z,5.03
2023-06-19T10:31:32.183Z,4.70
2023-06-19T10:33:59.174Z,5.15
2023-06-19T10:36:27.319Z,4.13
2023-06-19T10:38:55.367Z,3.58
2023-06-19T10:41:27.394Z,4.00
2023-06-19T10:43:59.597Z,4.05
2023-06-19T10:46:31.354Z,4.05
2023-06-19T10:49:05.724Z,3.47
2023-06-19T10:51:36.980Z,3.60
2023-06-19T10:54:04.806Z,3.88
2023-06-19T10:56:35.037Z,4.03
2023-06-19T10:59:07.376Z,3.85
2023-06-19T11:01:35.470Z,3.95
2023-06-19T11:04:04.853Z,3.47
2023-06-19T11:06:32.903Z,4.60
2023-06-19T11:09:01.566Z,4.25
2023-06-19T11:11:39.558Z,4.32
2023-06-19T11:14:07.383Z,4.55
2023-06-19T11:16:35.687Z,4.20
2023-06-19T11:19:03.070Z,3.80
2023-06-19T11:21:41.042Z,3.75
2023-06-19T11:24:13.169Z,5.20
2023-06-19T11:26:53.003Z,4.10
2023-06-19T11:29:29.928Z,5.30
2023-06-19T11:32:35.977Z,4.75
2023-06-19T11:35:08.949Z,4.05
2023-06-19T11:37:37.773Z,4.15
2023-06-19T11:40:11.930Z,4.13
2023-06-19T11:43:05.516Z,3.95
2023-06-19T11:45:32.459Z,3.33
2023-06-19T11:47:59.350Z,3.70
2023-06-19T11:50:29.816Z,4.32
2023-06-19T11:52:58.564Z,3.70
2023-06-19T11:55:26.599Z,3.72
2023-06-19T11:57:53.416Z,4.38
2023-06-19T12:00:20.249Z,4.20
2023-06-19T12:02:50.006Z,4.00
2023-06-19T12:05:17.817Z,3.97
2023-06-19T12:07:44.745Z,3.75
2023-06-19T12:10:13.122Z,3.90
2023-06-19T12:12:40.225Z,3.67
2023-06-19T12:15:08.109Z,3.60
2023-06-19T12:17:35.274Z,3.25
2023-06-19T12:20:06.856Z,3.25
2023-06-19T12:22:36.715Z,3.58
2023-06-19T12:25:03.744Z,4.50
2023-06-19T12:27:31.739Z,3.75
2023-06-19T12:29:58.905Z,3.78
2023-06-19T12:32:28.376Z,3.45
2023-06-19T12:34:55.311Z,3.88
2023-06-19T12:37:22.511Z,3.85
2023-06-19T12:39:53.824Z,3.72
2023-06-19T12:42:20.951Z,3.50
2023-06-19T12:44:47.857Z,4.82
2023-06-19T12:47:16.253Z,4.32
2023-06-19T12:49:43.158Z,4.30
2023-06-19T12:52:10.202Z,4.53
2023-06-19T12:54:37.539Z,4.82
2023-06-19T12:57:04.794Z,4.95
2023-06-19T12:59:39.640Z,4.72
2023-06-19T13:02:07.182Z,4.45
2023-06-19T13:04:34.258Z,4.07
2023-06-19T13:07:01.134Z,3.97
2023-06-19T13:09:28.973Z,3.67
2023-06-19T13:11:55.901Z,3.60
2023-06-19T13:14:22.879Z,4.65
2023-06-19T13:16:50.479Z,3.88
2023-06-19T13:19:17.522Z,5.03
2023-06-19T13:21:44.850Z,4.38
2023-06-19T13:24:12.192Z,4.03
2023-06-19T13:26:39.200Z,4.80
2023-06-19T13:29:06.247Z,4.85
2023-06-19T13:31:33.625Z,5.03
2023-06-19T13:34:00.610Z,5.20
2023-06-19T13:36:28.165Z,4.47
2023-06-19T13:38:55.604Z,4.45
2023-06-19T13:41:24.821Z,4.47
2023-06-19T13:43:53.997Z,4.60
2023-06-19T13:46:23.070Z,4.82
2023-06-19T13:48:52.402Z,4.63
2023-06-19T13:51:20.986Z,4.60
2023-06-19T13:53:48.659Z,4.47
2023-06-19T13:56:18.771Z,5.00
2023-06-19T13:58:45.638Z,4.93
2023-06-19T14:01:12.654Z,4.70
2023-06-19T14:03:42.879Z,4.63
2023-06-19T14:06:10.031Z,4.50
2023-06-19T14:08:45.428Z,5.75
2023-06-19T14:11:12.768Z,4.30
2023-06-19T14:13:39.789Z,4.90
2023-06-19T14:16:09.932Z,4.45
2023-06-19T14:18:39.645Z,4.68
2023-06-19T14:21:06.687Z,5.07
2023-06-19T14:23:35.308Z,4.63
2023-06-19T14:26:02.160Z,5.18
2023-06-19T14:28:29.185Z,4.97
2023-06-19T14:30:56.069Z,3.83
2023-06-19T14:33:23.147Z,4.95
2023-06-19T14:35:52.171Z,5.03
2023-06-19T14:38:20.197Z,4.47
2023-06-19T14:40:47.196Z,5.45
2023-06-19T14:43:14.063Z,4.50
2023-06-19T14:48:25.069Z,5.03
2023-06-19T14:50:52.015Z,5.22
2023-06-19T14:53:18.915Z,4.93
2023-06-19T14:55:47.030Z,4.65
2023-06-19T14:58:18.200Z,4.00
2023-06-19T15:00:45.318Z,5.20
2023-06-19T15:03:13.210Z,4.25
2023-06-19T15:05:40.281Z,3.70
2023-06-19T15:08:09.225Z,4.30
2023-06-19T15:10:36.674Z,3.90
2023-06-19T15:13:03.647Z,4.15
2023-06-19T15:15:30.672Z,4.25
2023-06-19T15:17:58.827Z,3.70
2023-06-19T15:20:26.023Z,4.13
2023-06-19T15:22:53.159Z,3.80
2023-06-19T15:25:21.215Z,3.78
2023-06-19T15:27:48.211Z,4.40
2023-06-19T15:30:15.329Z,3.67
2023-06-19T15:32:42.568Z,3.63
2023-06-19T15:35:09.680Z,3.25
2023-06-19T15:37:36.567Z,3.53
2023-06-19T15:40:09.262Z,3.70
2023-06-19T15:42:37.645Z,3.40
2023-06-19T15:45:05.592Z,3.95
2023-06-19T15:47:35.735Z,3.03
2023-06-19T15:50:02.676Z,3.70
2023-06-19T15:52:29.881Z,3.05
2023-06-19T15:54:56.896Z,3.45
2023-06-19T15:57:23.795Z,3.30
2023-06-19T15:59:52.969Z,3.63
2023-06-19T16:02:20.659Z,3.50
2023-06-19T16:04:49.932Z,3.85
2023-06-19T16:07:17.031Z,3.00
2023-06-19T16:09:54.484Z,3.03
2023-06-19T16:12:22.438Z,2.85
2023-06-19T16:14:49.597Z,3.03
2023-06-19T16:17:16.690Z,3.45
2023-06-19T16:19:43.629Z,3.55
2023-06-19T16:22:12.085Z,3.35
2023-06-19T16:24:42.613Z,3.08
2023-06-19T16:27:10.168Z,3.17
2023-06-19T16:29:37.321Z,3.85
2023-06-19T16:32:10.190Z,3.53
2023-06-19T16:34:38.056Z,3.85
2023-06-19T16:37:05.741Z,2.90
2023-06-19T16:39:32.922Z,3.25
2023-06-19T16:41:59.766Z,3.25
2023-06-19T16:44:26.841Z,3.92
2023-06-19T16:46:53.802Z,3.13
2023-06-19T16:49:23.994Z,3.30
2023-06-19T16:51:51.097Z,2.90
2023-06-19T16:54:18.145Z,3.10
2023-06-19T16:56:45.105Z,2.75
2023-06-19T16:59:12.027Z,3.63
2023-06-19T17:01:39.108Z,3.42
2023-06-19T17:04:07.814Z,3.47
2023-06-19T17:06:36.102Z,3.40
2023-06-19T17:09:03.238Z,2.92
2023-06-19T17:11:30.292Z,3.35
2023-06-19T17:13:57.313Z,3.08
2023-06-19T17:16:24.310Z,2.97
2023-06-19T17:18:51.729Z,3.25
2023-06-19T17:21:18.586Z,2.97
2023-06-19T17:23:46.786Z,3.40
2023-06-19T17:26:13.794Z,3.00
2023-06-19T17:28:40.655Z,3.55
2023-06-19T17:31:08.654Z,4.68
2023-06-19T17:33:35.638Z,3.28
2023-06-19T17:36:04.184Z,3.25
2023-06-19T17:38:32.938Z,3.22
2023-06-19T17:40:59.888Z,3.13
2023-06-19T17:43:26.966Z,3.95
2023-06-19T17:45:55.477Z,3.30
2023-06-19T17:48:23.291Z,2.95
2023-06-19T17:50:50.457Z,3.25
2023-06-19T17:53:17.777Z,2.95
2023-06-19T17:55:44.765Z,3.55
2023-06-19T17:58:11.678Z,3.20
2023-06-19T18:00:39.240Z,3.85
2023-06-19T18:03:09.271Z,3.65
2023-06-19T18:05:36.640Z,3.03
2023-06-19T18:08:03.593Z,3.25
2023-06-19T18:10:31.228Z,3.30
2023-06-19T18:12:59.073Z,2.80
2023-06-19T18:15:26.419Z,3.85
2023-06-19T18:17:53.375Z,3.00
2023-06-19T18:20:20.544Z,3.85
2023-06-19T18:22:47.421Z,3.15
2023-06-19T18:25:14.425Z,2.60
2023-06-19T18:27:41.584Z,3.67
2023-06-19T18:30:09.398Z,3.25
2023-06-19T18:32:36.788Z,3.00
2023-06-19T18:35:03.863Z,3.05
2023-06-19T18:37:30.786Z,3.22
2023-06-19T18:39:57.785Z,3.20
2023-06-19T18:42:24.773Z,3.42
2023-06-19T18:44:51.972Z,3.45
2023-06-19T18:47:18.895Z,3.80
2023-06-19T18:49:47.250Z,3.60
2023-06-19T18:52:14.243Z,3.63
2023-06-19T18:54:43.000Z,3.25
2023-06-19T18:57:11.503Z,3.15
2023-06-19T18:59:38.534Z,3.40
2023-06-19T19:02:08.272Z,3.30
2023-06-19T19:04:38.422Z,3.22
2023-06-19T19:07:10.820Z,3.28
2023-06-19T19:09:40.908Z,3.45
2023-06-19T19:12:12.829Z,3.58
2023-06-19T19:14:42.243Z,3.35
2023-06-19T19:17:09.757Z,4.20
2023-06-19T19:19:39.402Z,3.53
2023-06-19T19:22:06.606Z,4.07
2023-06-19T19:24:33.533Z,3.60
2023-06-19T19:27:00.529Z,3.50
2023-06-19T19:29:30.706Z,3.40
2023-06-19T19:31:57.591Z,3.67
2023-06-19T19:34:26.209Z,4.13
2023-06-19T19:36:53.395Z,4.10
2023-06-19T19:39:20.312Z,3.75
2023-06-19T19:41:47.217Z,4.00
2023-06-19T19:44:14.306Z,4.70
2023-06-19T19:46:41.592Z,4.53
2023-06-19T19:49:11.273Z,4.88
2023-06-19T19:51:39.969Z,4.43
2023-06-19T19:54:07.171Z,4.70
2023-06-19T19:56:36.092Z,4.00
2023-06-19T19:59:02.949Z,4.40
2023-06-19T20:01:29.903Z,4.25
2023-06-19T20:03:57.154Z,6.50
2023-06-19T20:06:25.510Z,4.95
2023-06-19T20:08:52.354Z,4.30
2023-06-19T20:11:19.281Z,4.13
2023-06-19T20:13:46.234Z,4.28
2023-06-19T20:16:13.253Z,4.53
2023-06-19T20:18:40.189Z,4.30
2023-06-19T20:21:07.167Z,3.75
2023-06-19T20:23:34.097Z,4.38
2023-06-19T20:26:01.707Z,4.50
2023-06-19T20:28:28.618Z,4.32
2023-06-19T20:30:55.555Z,4.40
2023-06-19T20:33:22.917Z,3.85
2023-06-19T20:35:50.900Z,4.07
2023-06-19T20:38:20.677Z,4.55
2023-06-19T20:40:50.934Z,4.25
2023-06-19T20:43:20.929Z,4.45
2023-06-19T20:45:48.429Z,4.78
2023-06-19T20:48:15.452Z,5.28
2023-06-19T20:50:43.109Z,4.65
2023-06-19T20:53:10.099Z,4.35
2023-06-19T20:55:37.083Z,4.82
2023-06-19T20:58:05.927Z,4.93
2023-06-19T21:00:33.229Z,5.35
2023-06-19T21:03:00.950Z,4.43
2023-06-19T21:05:28.171Z,4.80
2023-06-19T21:07:55.099Z,4.30
2023-06-19T21:10:23.793Z,4.03
2023-06-19T21:12:51.532Z,5.00
2023-06-19T21:15:18.578Z,4.97
2023-06-19T21:17:45.673Z,5.40
2023-06-19T21:20:15.341Z,5.15
2023-06-19T21:22:42.221Z,4.88
2023-06-19T21:25:09.473Z,4.70
2023-06-19T21:27:36.405Z,4.63
2023-06-19T21:30:12.702Z,5.07
2023-06-19T21:32:39.574Z,5.40
2023-06-19T21:35:07.015Z,5.63
2023-06-19T21:37:33.902Z,4.93
2023-06-19T21:40:01.106Z,5.10
2023-06-19T21:42:28.019Z,5.32
2023-06-19T21:44:54.885Z,5.47
2023-06-19T21:47:21.870Z,5.70
2023-06-19T21:49:48.805Z,5.07
2023-06-19T21:52:15.683Z,5.10
2023-06-19T21:54:42.573Z,5.93
2023-06-19T21:57:09.807Z,5.82
2023-06-19T21:59:36.726Z,5.95
2023-06-19T22:02:03.830Z,5.55
2023-06-19T22:04:30.677Z,5.70
2023-06-19T22:06:57.605Z,5.72
2023-06-19T22:09:25.041Z,6.13
2023-06-19T22:11:54.894Z,5.53
2023-06-19T22:14:22.408Z,6.00
2023-06-19T22:16:49.255Z,5.65
2023-06-19T22:19:16.176Z,5.88
2023-06-19T22:21:43.214Z,6.30
2023-06-19T22:24:10.357Z,5.97
2023-06-19T22:26:40.341Z,5.57
2023-06-19T22:29:07.483Z,5.90
2023-06-19T22:31:34.534Z,5.35
2023-06-19T22:34:01.455Z,5.82
2023-06-19T22:36:28.315Z,5.43
2023-06-19T22:38:55.603Z,5.75
2023-06-19T22:41:22.501Z,5.78
2023-06-19T22:43:51.854Z,6.28
2023-06-19T22:46:18.758Z,5.97
2023-06-19T22:48:51.459Z,6.13
2023-06-19T22:51:18.480Z,6.13
2023-06-19T22:53:45.412Z,5.90
2023-06-19T22:56:12.775Z,5.43
2023-06-19T22:58:41.041Z,6.50
2023-06-19T23:01:12.137Z,5.40
2023-06-19T23:03:41.251Z,5.18
2023-06-19T23:06:11.859Z,5.95
2023-06-19T23:08:41.969Z,5.95
2023-06-19T23:11:10.584Z,6.53
2023-06-19T23:13:39.122Z,6.25
2023-06-19T23:16:10.743Z,5.63
2023-06-19T23:18:38.101Z,5.78
2023-06-19T23:21:06.532Z,5.65
2023-06-19T23:23:33.912Z,6.53
2023-06-19T23:26:01.587Z,7.10
2023-06-19T23:28:32.632Z,6.40
2023-06-19T23:31:00.220Z,6.43
2023-06-19T23:33:27.416Z,6.40
2023-06-19T23:35:57.631Z,6.38
2023-06-19T23:38:27.887Z,6.85
2023-06-19T23:40:57.780Z,6.55
2023-06-19T23:43:24.592Z,6.75
2023-06-19T23:45:52.598Z,6.80
2023-06-19T23:48:19.649Z,6.95
2023-06-19T23:50:46.528Z,6.35
2023-06-19T23:53:13.374Z,6.53
2023-06-19T23:55:40.297Z,6.97
2023-06-19T23:58:07.206Z,7.90
